createdAt,value
2018-09-04T00:01:46.172Z,18.86
2018-09-04T00:04:15.970Z,18.84
2018-09-04T00:06:45.792Z,18.82
2018-09-04T00:09:15.510Z,18.77
2018-09-04T00:11:45.181Z,18.74
2018-09-04T00:14:14.944Z,18.69
2018-09-04T00:16:44.852Z,18.66
2018-09-04T00:19:14.555Z,18.63
2018-09-04T00:21:44.373Z,18.61
2018-09-04T00:24:14.157Z,18.57
2018-09-04T00:26:43.865Z,18.54
2018-09-04T00:29:13.594Z,18.52
2018-09-04T00:31:43.343Z,18.49
2018-09-04T00:34:13.044Z,18.48
2018-09-04T00:36:42.753Z,18.43
2018-09-04T00:39:12.499Z,18.40
2018-09-04T00:41:42.189Z,18.37
2018-09-04T00:44:11.975Z,18.35
2018-09-04T00:46:41.725Z,18.30
2018-09-04T00:49:11.464Z,18.27
2018-09-04T00:51:41.259Z,18.23
2018-09-04T00:54:11.016Z,18.18
2018-09-04T00:56:40.729Z,18.15
2018-09-04T00:59:10.639Z,18.11
2018-09-04T01:01:40.640Z,18.07
2018-09-04T01:04:10.513Z,18.02
2018-09-04T01:06:40.245Z,17.97
2018-09-04T01:09:09.989Z,17.96
2018-09-04T01:11:39.669Z,17.92
2018-09-04T01:14:09.249Z,17.89
2018-09-04T01:16:38.966Z,17.85
2018-09-04T01:19:08.619Z,17.85
2018-09-04T01:21:38.438Z,17.81
2018-09-04T01:24:08.059Z,17.80
2018-09-04T01:26:37.667Z,17.77
2018-09-04T01:29:07.682Z,17.78
2018-09-04T01:31:37.614Z,17.76
2018-09-04T01:34:07.237Z,17.72
2018-09-04T01:36:36.829Z,17.69
2018-09-04T01:39:08.121Z,17.66
2018-09-04T01:41:37.726Z,17.63
2018-09-04T01:44:07.521Z,17.59
2018-09-04T01:46:37.082Z,17.57
2018-09-04T01:49:06.661Z,17.54
2018-09-04T01:51:36.293Z,17.53
2018-09-04T01:54:06.333Z,17.52
2018-09-04T01:56:35.901Z,17.49
2018-09-04T01:59:05.765Z,17.48
2018-09-04T02:01:36.527Z,17.44
2018-09-04T02:04:06.392Z,17.44
2018-09-04T02:06:36.041Z,17.42
2018-09-04T02:09:07.030Z,17.40
2018-09-04T02:11:36.668Z,17.39
2018-09-04T02:14:06.322Z,17.37
2018-09-04T02:16:36.052Z,17.35
2018-09-04T02:19:05.981Z,17.32
2018-09-04T02:21:35.609Z,17.31
2018-09-04T02:24:05.249Z,17.28
2018-09-04T02:26:34.811Z,17.26
2018-09-04T02:29:04.382Z,17.21
2018-09-04T02:31:34.046Z,17.17
2018-09-04T02:34:03.629Z,17.15
2018-09-04T02:36:33.274Z,17.13
2018-09-04T02:39:03.062Z,17.12
2018-09-04T02:41:32.636Z,17.12
2018-09-04T02:44:02.254Z,17.12
2018-09-04T02:46:31.863Z,17.13
2018-09-04T02:49:01.502Z,17.12
2018-09-04T02:51:31.148Z,17.12
2018-09-04T02:54:00.885Z,17.10
2018-09-04T02:56:30.603Z,17.09
2018-09-04T02:59:00.471Z,17.08
2018-09-04T03:01:33.260Z,17.08
2018-09-04T03:04:02.834Z,17.07
2018-09-04T03:06:32.509Z,17.08
2018-09-04T03:09:02.097Z,17.08
2018-09-04T03:11:31.705Z,17.05
2018-09-04T03:14:01.449Z,17.05
2018-09-04T03:16:30.910Z,17.02
2018-09-04T03:19:00.566Z,17.01
2018-09-04T03:21:30.191Z,17.00
2018-09-04T03:23:59.786Z,17.00
2018-09-04T03:26:29.406Z,16.99
2018-09-04T03:28:59.042Z,16.99
2018-09-04T03:31:28.658Z,17.00
2018-09-04T03:33:58.272Z,17.00
2018-09-04T03:36:28.030Z,17.00
2018-09-04T03:38:58.171Z,17.00
2018-09-04T03:41:27.769Z,17.01
2018-09-04T03:43:57.586Z,17.04
2018-09-04T03:46:27.191Z,17.04
2018-09-04T03:48:56.849Z,17.03
2018-09-04T03:51:26.797Z,17.02
2018-09-04T03:53:56.431Z,16.99
2018-09-04T03:56:26.038Z,16.97
2018-09-04T03:58:55.643Z,16.95
2018-09-04T04:01:25.291Z,16.91
2018-09-04T04:03:54.869Z,16.91
2018-09-04T04:06:24.474Z,16.91
2018-09-04T04:08:54.066Z,16.93
2018-09-04T04:11:30.554Z,16.91
2018-09-04T04:14:00.191Z,16.94
2018-09-04T04:16:29.786Z,16.91
2018-09-04T04:18:59.467Z,16.90
2018-09-04T04:21:29.078Z,16.90
2018-09-04T04:23:58.869Z,16.90
2018-09-04T04:26:28.498Z,16.88
2018-09-04T04:28:58.368Z,16.86
2018-09-04T04:31:28.215Z,16.86
2018-09-04T04:33:57.951Z,16.84
2018-09-04T04:36:27.651Z,16.83
2018-09-04T04:38:57.387Z,16.83
2018-09-04T04:41:27.057Z,16.83
2018-09-04T04:43:56.727Z,16.86
2018-09-04T04:46:26.397Z,16.88
2018-09-04T04:48:56.277Z,16.92
2018-09-04T04:51:25.891Z,16.98
2018-09-04T04:53:55.539Z,17.05
2018-09-04T04:56:25.222Z,17.12
2018-09-04T04:58:54.911Z,17.30
2018-09-04T05:01:24.598Z,17.73
2018-09-04T05:03:54.305Z,18.19
2018-09-04T05:06:23.887Z,18.61
2018-09-04T05:08:53.685Z,18.93
2018-09-04T05:11:23.366Z,19.14
2018-09-04T05:13:53.058Z,19.50
2018-09-04T05:16:22.673Z,19.95
2018-09-04T05:18:52.538Z,20.40
2018-09-04T05:21:22.154Z,20.82
2018-09-04T05:23:52.525Z,21.29
2018-09-04T05:26:22.141Z,21.70
2018-09-04T05:28:51.795Z,22.01
2018-09-04T05:31:21.507Z,21.96
2018-09-04T05:33:51.212Z,22.20
2018-09-04T05:36:20.865Z,22.41
2018-09-04T05:38:50.459Z,22.49
2018-09-04T05:41:20.045Z,22.44
2018-09-04T05:43:54.902Z,22.39
2018-09-04T05:46:35.852Z,22.65
2018-09-04T05:49:06.123Z,22.92
2018-09-04T05:51:35.729Z,22.81
2018-09-04T05:54:05.416Z,22.63
2018-09-04T05:56:35.125Z,22.64
2018-09-04T05:59:04.812Z,22.83
2018-09-04T06:01:34.438Z,22.98
2018-09-04T06:04:04.015Z,22.99
2018-09-04T06:06:33.669Z,22.92
2018-09-04T06:09:03.418Z,22.87
2018-09-04T06:11:33.012Z,22.90
2018-09-04T06:14:02.625Z,23.01
2018-09-04T06:16:32.414Z,23.10
2018-09-04T06:19:02.038Z,23.34
2018-09-04T06:21:31.641Z,23.58
2018-09-04T06:24:01.242Z,23.78
2018-09-04T06:26:30.856Z,24.12
2018-09-04T06:29:00.536Z,24.71
2018-09-04T06:31:30.194Z,25.30
2018-09-04T06:33:59.815Z,25.75
2018-09-04T06:36:29.535Z,26.12
2018-09-04T06:38:59.241Z,26.62
2018-09-04T06:41:28.853Z,27.25
2018-09-04T06:43:58.445Z,27.97
2018-09-04T06:46:28.074Z,28.73
2018-09-04T06:48:57.713Z,29.39
2018-09-04T06:51:27.332Z,29.86
2018-09-04T06:53:57.002Z,30.20
2018-09-04T06:56:26.658Z,30.62
2018-09-04T06:58:56.246Z,31.12
2018-09-04T07:01:25.982Z,31.51
2018-09-04T07:03:55.609Z,31.43
2018-09-04T07:06:25.216Z,31.27
2018-09-04T07:08:55.099Z,31.33
2018-09-04T07:11:24.721Z,31.54
2018-09-04T07:13:54.344Z,31.76
2018-09-04T07:16:23.962Z,32.01
2018-09-04T07:18:53.645Z,32.16
2018-09-04T07:21:23.249Z,32.42
2018-09-04T07:23:52.863Z,32.75
2018-09-04T07:26:22.533Z,32.74
2018-09-04T07:28:52.236Z,32.97
2018-09-04T07:31:21.862Z,33.19
2018-09-04T07:33:51.466Z,33.36
2018-09-04T07:36:21.098Z,33.68
2018-09-04T07:38:50.787Z,34.30
2018-09-04T07:41:20.375Z,34.91
2018-09-04T07:43:49.975Z,35.51
2018-09-04T07:46:19.725Z,35.84
2018-09-04T07:48:49.362Z,35.94
2018-09-04T07:51:19.013Z,36.25
2018-09-04T07:53:48.850Z,36.42
2018-09-04T07:56:18.539Z,36.35
2018-09-04T07:58:48.163Z,36.06
2018-09-04T08:01:17.806Z,35.92
2018-09-04T08:03:47.395Z,35.97
2018-09-04T08:06:17.016Z,36.33
2018-09-04T08:08:46.911Z,36.73
2018-09-04T08:11:16.557Z,37.12
2018-09-04T08:13:46.246Z,37.34
2018-09-04T08:16:16.699Z,37.52
2018-09-04T08:18:46.260Z,37.70
2018-09-04T08:21:15.819Z,37.67
2018-09-04T08:23:45.410Z,37.42
2018-09-04T08:26:15.056Z,37.47
2018-09-04T08:28:44.630Z,37.54
2018-09-04T08:31:14.422Z,37.70
2018-09-04T08:33:44.019Z,37.82
2018-09-04T08:36:13.610Z,37.88
2018-09-04T08:38:49.202Z,37.67
2018-09-04T08:41:19.154Z,37.25
2018-09-04T08:43:49.291Z,37.27
2018-09-04T08:46:19.166Z,37.52
2018-09-04T08:48:48.801Z,37.66
2018-09-04T08:51:18.897Z,37.75
2018-09-04T08:53:48.675Z,38.02
2018-09-04T08:56:18.247Z,38.25
2018-09-04T08:58:47.910Z,38.57
2018-09-04T09:01:17.521Z,38.24
2018-09-04T09:03:47.168Z,38.34
2018-09-04T09:06:16.834Z,38.76
2018-09-04T09:08:46.600Z,39.19
2018-09-04T09:11:16.182Z,39.38
2018-09-04T09:13:45.775Z,39.42
2018-09-04T09:16:15.364Z,39.31
2018-09-04T09:18:45.037Z,39.17
2018-09-04T09:21:14.679Z,39.38
2018-09-04T09:23:44.294Z,39.52
2018-09-04T09:26:14.005Z,39.20
2018-09-04T09:28:43.592Z,39.30
2018-09-04T09:31:13.200Z,39.17
2018-09-04T09:33:42.765Z,39.20
2018-09-04T09:36:12.386Z,39.26
2018-09-04T09:38:42.170Z,39.05
2018-09-04T09:41:11.730Z,38.64
2018-09-04T09:43:41.310Z,38.53
2018-09-04T09:46:10.919Z,38.54
2018-09-04T09:48:43.187Z,38.46
2018-09-04T09:51:13.369Z,38.44
2018-09-04T09:53:42.938Z,38.63
2018-09-04T09:56:12.763Z,38.87
2018-09-04T09:58:42.337Z,38.97
2018-09-04T10:01:17.002Z,39.02
2018-09-04T10:03:51.624Z,38.94
2018-09-04T10:06:22.075Z,38.95
2018-09-04T10:08:51.706Z,38.39
2018-09-04T10:11:21.470Z,38.02
2018-09-04T10:13:51.325Z,37.91
2018-09-04T10:16:20.966Z,37.77
2018-09-04T10:18:50.654Z,37.72
2018-09-04T10:21:20.377Z,37.73
2018-09-04T10:23:50.006Z,37.63
2018-09-04T10:26:19.720Z,37.33
2018-09-04T10:28:49.294Z,37.34
2018-09-04T10:31:18.929Z,37.04
2018-09-04T10:33:48.510Z,36.82
2018-09-04T10:36:18.226Z,36.54
2018-09-04T10:38:47.753Z,36.41
2018-09-04T10:41:17.454Z,35.65
2018-09-04T10:43:47.032Z,35.12
2018-09-04T10:46:16.683Z,34.90
2018-09-04T10:48:46.482Z,34.92
2018-09-04T10:51:16.083Z,34.88
2018-09-04T10:53:45.742Z,34.79
2018-09-04T10:56:15.535Z,34.50
2018-09-04T10:58:45.194Z,34.05
2018-09-04T11:01:14.799Z,33.95
2018-09-04T11:03:44.543Z,33.71
2018-09-04T11:06:14.115Z,33.17
2018-09-04T11:08:43.723Z,32.66
2018-09-04T11:11:13.501Z,32.47
2018-09-04T11:13:43.088Z,32.12
2018-09-04T11:16:12.814Z,31.83
2018-09-04T11:18:42.408Z,31.49
2018-09-04T11:21:11.971Z,31.27
2018-09-04T11:23:41.600Z,31.33
2018-09-04T11:26:11.202Z,31.45
2018-09-04T11:28:46.302Z,31.39
2018-09-04T11:31:15.907Z,31.20
2018-09-04T11:33:45.530Z,31.07
2018-09-04T11:36:15.122Z,30.64
2018-09-04T11:38:44.819Z,30.09
2018-09-04T11:41:14.438Z,29.53
2018-09-04T11:43:44.038Z,29.16
2018-09-04T11:46:13.632Z,28.89
2018-09-04T11:48:43.249Z,28.59
2018-09-04T11:51:12.998Z,28.38
2018-09-04T11:53:42.611Z,28.26
2018-09-04T11:56:12.226Z,28.17
2018-09-04T11:58:41.879Z,28.23
2018-09-04T12:01:13.734Z,28.22
2018-09-04T12:03:43.371Z,28.17
2018-09-04T12:06:12.954Z,28.14
2018-09-04T12:08:42.564Z,27.96
2018-09-04T12:11:12.166Z,27.83
2018-09-04T12:13:41.775Z,27.69
2018-09-04T12:16:11.386Z,27.59
2018-09-04T12:18:41.088Z,27.60
2018-09-04T12:21:11.880Z,27.60
2018-09-04T12:23:41.518Z,27.64
2018-09-04T12:26:11.927Z,27.52
2018-09-04T12:28:41.546Z,27.50
2018-09-04T12:31:11.205Z,27.54
2018-09-04T12:33:40.766Z,27.53
2018-09-04T12:36:10.411Z,27.42
2018-09-04T12:38:41.940Z,27.34
2018-09-04T12:41:14.534Z,27.29
2018-09-04T12:43:44.283Z,27.24
2018-09-04T12:46:13.877Z,27.18
2018-09-04T12:48:48.638Z,27.17
2018-09-04T12:51:18.285Z,27.22
2018-09-04T12:53:47.862Z,27.22
2018-09-04T12:56:17.598Z,27.22
2018-09-04T12:58:47.171Z,27.16
2018-09-04T13:01:16.819Z,27.10
2018-09-04T13:03:46.473Z,27.18
2018-09-04T13:06:16.082Z,27.21
2018-09-04T13:08:45.680Z,27.11
2018-09-04T13:11:15.251Z,26.95
2018-09-04T13:13:44.843Z,26.87
2018-09-04T13:16:14.497Z,26.88
2018-09-04T13:18:44.125Z,26.85
2018-09-04T13:21:13.750Z,26.78
2018-09-04T13:23:43.338Z,26.71
2018-09-04T13:26:13.170Z,26.64
2018-09-04T13:28:42.777Z,26.51
2018-09-04T13:31:12.435Z,26.42
2018-09-04T13:33:42.201Z,26.36
2018-09-04T13:36:18.015Z,26.27
2018-09-04T13:38:47.731Z,26.20
2018-09-04T13:41:17.474Z,26.12
2018-09-04T13:43:47.137Z,26.16
2018-09-04T13:46:16.774Z,26.24
2018-09-04T13:48:46.672Z,26.36
2018-09-04T13:51:16.484Z,26.44
2018-09-04T13:53:46.192Z,26.49
2018-09-04T13:56:15.763Z,26.58
2018-09-04T13:58:45.550Z,26.69
2018-09-04T14:01:15.129Z,26.80
2018-09-04T14:03:44.695Z,26.98
2018-09-04T14:06:14.306Z,27.09
2018-09-04T14:08:43.892Z,27.09
2018-09-04T14:11:13.505Z,27.09
2018-09-04T14:13:43.113Z,27.08
2018-09-04T14:16:16.719Z,26.88
2018-09-04T14:18:46.335Z,26.62
2018-09-04T14:21:15.959Z,26.48
2018-09-04T14:23:45.553Z,26.39
2018-09-04T14:26:15.165Z,26.39
2018-09-04T14:28:44.751Z,26.32
2018-09-04T14:31:14.440Z,26.16
2018-09-04T14:33:43.997Z,26.10
2018-09-04T14:36:13.653Z,26.14
2018-09-04T14:38:43.374Z,26.23
2018-09-04T14:41:13.027Z,26.25
2018-09-04T14:43:42.610Z,26.30
2018-09-04T14:46:12.177Z,26.37
2018-09-04T14:48:41.810Z,26.42
2018-09-04T14:51:11.486Z,26.44
2018-09-04T14:53:41.158Z,26.40
2018-09-04T14:56:10.756Z,26.34
2018-09-04T14:58:40.357Z,26.30
2018-09-04T15:01:09.969Z,26.19
2018-09-04T15:03:39.669Z,26.06
2018-09-04T15:06:09.303Z,25.87
2018-09-04T15:08:39.291Z,25.71
2018-09-04T15:11:08.928Z,25.61
2018-09-04T15:13:38.625Z,25.52
2018-09-04T15:16:08.307Z,25.47
2018-09-04T15:18:38.057Z,25.48
2018-09-04T15:21:07.763Z,25.48
2018-09-04T15:23:37.395Z,25.45
2018-09-04T15:26:07.118Z,25.44
2018-09-04T15:28:36.741Z,25.43
2018-09-04T15:31:06.796Z,25.41
2018-09-04T15:33:36.403Z,25.40
2018-09-04T15:36:07.072Z,25.39
2018-09-04T15:38:36.690Z,25.35
2018-09-04T15:41:06.386Z,25.27
2018-09-04T15:43:36.110Z,25.21
2018-09-04T15:46:06.279Z,25.14
2018-09-04T15:48:36.106Z,25.06
2018-09-04T15:51:06.552Z,24.98
2018-09-04T15:53:36.543Z,24.93
2018-09-04T15:56:06.254Z,24.87
2018-09-04T15:58:35.851Z,24.82
2018-09-04T16:01:05.439Z,24.77
2018-09-04T16:03:35.030Z,24.71
2018-09-04T16:06:04.733Z,24.63
2018-09-04T16:08:34.365Z,24.55
2018-09-04T16:11:05.526Z,24.47
2018-09-04T16:13:36.055Z,24.39
2018-09-04T16:16:05.705Z,24.33
2018-09-04T16:18:35.687Z,24.30
2018-09-04T16:21:05.699Z,24.24
2018-09-04T16:23:35.317Z,24.19
2018-09-04T16:26:05.098Z,24.12
2018-09-04T16:28:34.746Z,24.05
2018-09-04T16:31:04.422Z,23.98
2018-09-04T16:33:34.046Z,23.91
2018-09-04T16:36:03.828Z,23.84
2018-09-04T16:38:33.448Z,23.79
2018-09-04T16:41:03.305Z,23.73
2018-09-04T16:44:01.797Z,23.68
2018-09-04T16:46:31.511Z,23.62
2018-09-04T16:49:02.062Z,23.56
2018-09-04T16:51:31.770Z,23.48
2018-09-04T16:54:01.616Z,23.42
2018-09-04T16:56:31.226Z,23.37
2018-09-04T16:59:00.803Z,23.29
2018-09-04T17:01:30.698Z,23.22
2018-09-04T17:04:00.479Z,23.15
2018-09-04T17:06:30.061Z,23.06
2018-09-04T17:08:59.670Z,23.01
2018-09-04T17:11:29.414Z,22.96
2018-09-04T17:14:00.496Z,22.92
2018-09-04T17:16:30.128Z,22.86
2018-09-04T17:18:59.770Z,22.77
2018-09-04T17:21:29.526Z,22.72
2018-09-04T17:23:59.103Z,22.69
2018-09-04T17:26:28.722Z,22.65
2018-09-04T17:28:58.332Z,22.59
2018-09-04T17:31:28.320Z,22.53
2018-09-04T17:33:57.895Z,22.45
2018-09-04T17:36:27.477Z,22.38
2018-09-04T17:38:57.076Z,22.32
2018-09-04T17:41:26.757Z,22.26
2018-09-04T17:43:56.327Z,22.16
2018-09-04T17:46:25.887Z,22.06
2018-09-04T17:48:55.496Z,21.96
2018-09-04T17:51:26.389Z,21.86
2018-09-04T17:53:56.103Z,21.79
2018-09-04T17:56:26.098Z,21.75
2018-09-04T17:58:55.769Z,21.71
2018-09-04T18:01:25.430Z,21.68
2018-09-04T18:03:55.267Z,21.64
2018-09-04T18:07:28.242Z,21.61
2018-09-04T18:09:57.835Z,21.54
2018-09-04T18:12:27.590Z,21.48
2018-09-04T18:14:57.244Z,21.41
2018-09-04T18:17:26.887Z,21.35
2018-09-04T18:19:56.556Z,21.30
2018-09-04T18:22:26.234Z,21.24
2018-09-04T18:24:56.584Z,21.18
2018-09-04T18:27:26.313Z,21.13
2018-09-04T18:29:56.217Z,21.11
2018-09-04T18:32:25.905Z,21.05
2018-09-04T18:34:55.600Z,20.98
2018-09-04T18:37:25.381Z,20.95
2018-09-04T18:39:55.158Z,20.90
2018-09-04T18:42:24.928Z,20.83
2018-09-04T18:44:54.694Z,20.74
2018-09-04T18:47:24.374Z,20.66
2018-09-04T18:49:54.098Z,20.59
2018-09-04T18:52:23.798Z,20.53
2018-09-04T18:54:53.378Z,20.46
2018-09-04T18:57:23.022Z,20.44
2018-09-04T18:59:52.883Z,20.40
2018-09-04T19:02:22.531Z,20.32
2018-09-04T19:04:52.148Z,20.27
2018-09-04T19:07:21.897Z,20.23
2018-09-04T19:09:51.545Z,20.19
2018-09-04T19:12:21.171Z,20.14
2018-09-04T19:14:51.358Z,20.10
2018-09-04T19:17:20.995Z,20.02
2018-09-04T19:19:52.587Z,19.94
2018-09-04T19:22:22.316Z,19.92
2018-09-04T19:24:51.929Z,19.92
2018-09-04T19:27:21.773Z,19.91
2018-09-04T19:29:51.606Z,19.87
2018-09-04T19:32:21.198Z,19.82
2018-09-04T19:34:50.814Z,19.76
2018-09-04T19:37:20.527Z,19.74
2018-09-04T19:39:50.102Z,19.71
2018-09-04T19:42:20.068Z,19.65
2018-09-04T19:44:49.699Z,19.57
2018-09-04T19:47:19.343Z,19.51
2018-09-04T19:49:50.959Z,19.46
2018-09-04T19:52:20.677Z,19.41
2018-09-04T19:54:50.322Z,19.33
2018-09-04T19:57:19.945Z,19.27
2018-09-04T19:59:49.673Z,19.21
2018-09-04T20:02:19.377Z,19.14
2018-09-04T20:04:49.202Z,19.09
2018-09-04T20:07:18.882Z,19.04
2018-09-04T20:09:48.543Z,18.96
2018-09-04T20:12:18.155Z,18.92
2018-09-04T20:14:47.817Z,18.88
2018-09-04T20:17:17.480Z,18.84
2018-09-04T20:19:47.123Z,18.82
2018-09-04T20:22:16.779Z,18.77
2018-09-04T20:24:46.383Z,18.75
2018-09-04T20:27:16.162Z,18.71
2018-09-04T20:29:45.763Z,18.66
2018-09-04T20:32:15.445Z,18.59
2018-09-04T20:34:45.123Z,18.54
2018-09-04T20:37:14.820Z,18.48
2018-09-04T20:39:44.443Z,18.45
2018-09-04T20:42:14.119Z,18.42
2018-09-04T20:44:43.730Z,18.40
2018-09-04T20:47:13.338Z,18.35
2018-09-04T20:49:43.275Z,18.34
2018-09-04T20:52:12.926Z,18.29
2018-09-04T20:54:42.513Z,18.28
2018-09-04T20:57:29.806Z,18.24
2018-09-04T21:00:18.094Z,18.24
2018-09-04T21:03:04.900Z,18.21
2018-09-04T21:05:51.586Z,18.20
2018-09-04T21:08:43.980Z,18.17
2018-09-04T21:11:13.817Z,18.11
2018-09-04T21:13:43.450Z,18.08
2018-09-04T21:16:13.056Z,18.07
2018-09-04T21:18:42.648Z,18.04
2018-09-04T21:21:12.280Z,18.00
2018-09-04T21:23:41.850Z,17.97
2018-09-04T21:26:11.491Z,17.92
2018-09-04T21:28:41.132Z,17.87
2018-09-04T21:31:10.709Z,17.85
2018-09-04T21:33:40.284Z,17.83
2018-09-04T21:36:09.882Z,17.82
2018-09-04T21:38:39.489Z,17.79
2018-09-04T21:41:09.623Z,17.77
2018-09-04T21:43:39.912Z,17.74
2018-09-04T21:46:09.744Z,17.70
2018-09-04T21:48:39.382Z,17.66
2018-09-04T21:51:09.022Z,17.59
2018-09-04T21:53:38.670Z,17.54
2018-09-04T21:56:08.338Z,17.52
2018-09-04T21:58:38.015Z,17.50
2018-09-04T22:01:07.708Z,17.49
2018-09-04T22:03:37.303Z,17.44
2018-09-04T22:06:07.260Z,17.39
2018-09-04T22:08:36.934Z,17.35
2018-09-04T22:11:06.539Z,17.31
2018-09-04T22:13:36.272Z,17.25
2018-09-04T22:16:06.118Z,17.20
2018-09-04T22:18:35.942Z,17.17
2018-09-04T22:21:05.857Z,17.13
2018-09-04T22:23:35.985Z,17.09
2018-09-04T22:26:06.014Z,17.05
2018-09-04T22:28:36.197Z,17.01
2018-09-04T22:31:06.127Z,16.99
2018-09-04T22:33:35.821Z,16.99
2018-09-04T22:36:06.767Z,16.97
2018-09-04T22:38:36.366Z,16.94
2018-09-04T22:41:05.999Z,16.91
2018-09-04T22:43:35.606Z,16.87
2018-09-04T22:46:05.886Z,16.84
2018-09-04T22:48:35.474Z,16.80
2018-09-04T22:51:10.256Z,16.77
2018-09-04T22:53:40.030Z,16.75
2018-09-04T22:56:09.629Z,16.72
2018-09-04T22:58:39.378Z,16.68
2018-09-04T23:01:08.964Z,16.66
2018-09-04T23:03:38.643Z,16.63
2018-09-04T23:06:08.658Z,16.61
2018-09-04T23:08:38.433Z,16.60
2018-09-04T23:11:08.050Z,16.57
2018-09-04T23:13:37.650Z,16.54
2018-09-04T23:16:07.487Z,16.51
2018-09-04T23:18:37.211Z,16.47
2018-09-04T23:21:06.894Z,16.46
2018-09-04T23:23:36.562Z,16.43
2018-09-04T23:26:06.302Z,16.41
2018-09-04T23:28:35.929Z,16.38
2018-09-04T23:31:05.639Z,16.35
2018-09-04T23:33:35.410Z,16.33
2018-09-04T23:36:05.333Z,16.30
2018-09-04T23:38:35.341Z,16.28
2018-09-04T23:41:05.222Z,16.26
2018-09-04T23:43:34.878Z,16.23
2018-09-04T23:46:04.533Z,16.22
2018-09-04T23:48:34.209Z,16.20
2018-09-04T23:51:04.186Z,16.19
2018-09-04T23:53:33.850Z,16.18
2018-09-04T23:56:03.471Z,16.16
2018-09-04T23:58:33.099Z,16.14
